Latest Weather Observations for Coonabarabran Airport

IDN60801

Issued at 9:03 am EDT Thursday 11 February 2016 (issued every 30 minutes, with the page automatically refreshed every 10 minutes)

About weather observations | Map of weather stations | Latest weather observations for NSW | Other Formats
Station Details ID: 064017 Name: COONABARABRAN AIRPORT AWS Lat: -31.33 Lon: 149.27 Height: 645.0 m
Data from the previous 72 hours. | See also: Recent months at Coonabarabran Airport
Date/Time
EDT
Temp
°C
App
Temp
°C
Dew
Point
Rel
Hum
%
Delta-T
°C
Wind Press
QNH
hPa
Press
MSL
hPa
Rain
since 9 am
mm
Dir
 
Spd
km/h
Gust
km/h
Spd
kts
Gust
kts
11/09:00am 22.6 19.2 12.5 53 5.9 NNW 22 32 12 17 1016.6 1012.8 0.0
11/08:30am 22.2 19.2 11.9 52 6.0 NNW 19 26 10 14 1016.5 1012.7 0.0
11/08:00am 21.9 19.6 11.9 53 5.8 NNW 15 20 8 11 1016.4 1012.6 0.0
11/07:30am 19.1 16.9 9.3 53 5.3 N 11 15 6 8 1015.7 1012.0 0.0
11/07:00am 19.7 16.3 9.0 50 5.8 N 17 20 9 11 1015.3 1011.5 0.0
11/06:30am 18.9 15.7 8.6 51 5.5 N 15 20 8 11 1014.8 1011.0 0.0
11/06:00am 19.0 15.4 8.4 50 5.7 N 17 19 9 10 1014.5 1010.7 0.0
11/05:30am 20.3 17.2 8.9 48 6.2 NE 15 19 8 10 1014.0 1010.2 0.0
11/05:00am 19.5 15.9 8.5 49 5.9 NE 17 19 9 10 1013.7 1009.9 0.0
11/04:30am 19.9 16.2 7.9 46 6.4 ENE 17 17 9 9 1013.7 1009.9 0.0
11/04:00am 20.5 17.2 8.2 45 6.6 NE 15 17 8 9 1013.7 1009.9 0.0
11/03:30am 20.8 17.4 7.8 43 6.9 NE 15 17 8 9 1013.9 1010.1 0.0
11/03:00am 20.7 17.7 7.7 43 6.9 ENE 13 15 7 8 1014.2 1010.4 0.0
11/02:30am 21.9 19.7 7.7 40 7.6 ESE 9 15 5 8 1014.4 1010.6 0.0
11/02:00am 22.7 21.2 8.4 40 7.8 SE 6 11 3 6 1014.6 1010.8 0.0
11/01:30am 23.3 21.6 8.2 38 8.2 SE 7 15 4 8 1014.7 1010.9 0.0
11/01:00am 22.7 21.1 8.8 41 7.6 S 7 11 4 6 1015.0 1011.2 0.0
11/12:30am 22.9 21.4 9.0 41 7.7 ESE 7 15 4 8 1015.2 1011.4 0.0
11/12:00am 22.1 19.8 8.9 43 7.2 E 11 11 6 6 1015.4 1011.6 0.0
 
Date/Time
EDT
Temp
°C
App
Temp
°C
Dew
Point
Rel
Hum
%
Delta-T
°C
Wind Press
QNH
hPa
Press
MSL
hPa
Rain
since 9 am
mm
Dir
 
Spd
km/h
Gust
km/h
Spd
kts
Gust
kts
10/11:30pm 22.1 19.5 9.3 44 7.1 ENE 13 15 7 8 1015.4 1011.6 0.0
10/11:00pm 21.9 19.2 9.1 44 7.0 ENE 13 17 7 9 1015.6 1011.9 0.0
10/10:30pm 22.5 19.8 9.0 42 7.4 ENE 13 15 7 8 1015.9 1012.1 0.0
10/10:00pm 22.9 20.2 9.0 41 7.7 ENE 13 15 7 8 1015.7 1012.0 0.0
10/09:30pm 23.0 20.7 9.0 41 7.7 ENE 11 15 6 8 1015.5 1011.8 0.0
10/09:00pm 23.1 20.8 9.1 41 7.8 ENE 11 13 6 7 1015.5 1011.8 0.0
10/08:30pm 24.0 21.3 8.8 38 8.4 ENE 13 17 7 9 1015.3 1011.5 0.0
10/08:00pm 25.2 23.2 8.7 35 9.2 ESE 9 11 5 6 1015.1 1011.3 0.0
10/07:30pm 27.0 24.5 8.4 31 10.4 SE 11 17 6 9 1014.8 1011.0 0.0
10/07:00pm 28.0 24.3 7.8 28 11.2 SE 17 22 9 12 1014.4 1010.6 0.0
10/06:30pm 28.6 24.2 6.7 25 12.0 SSE 19 28 10 15 1014.2 1010.4 0.0
10/06:00pm 29.0 25.1 8.7 28 11.5 SSE 19 26 10 14 1013.9 1010.1 0.0
10/05:30pm 29.2 24.8 8.8 28 11.6 SE 22 32 12 17 1013.8 1010.0 0.0
10/05:00pm 29.6 26.1 8.6 27 11.9 SE 17 28 9 15 1013.8 1010.0 0.0
10/04:30pm 29.7 26.0 9.3 28 11.7 SSE 19 30 10 16 1013.9 1010.1 0.0
10/04:00pm 29.5 27.1 11.5 33 10.7 SSE 15 20 8 11 1014.0 1010.2 0.0
10/03:30pm 29.0 25.3 10.2 31 10.9 SSE 20 39 11 21 1014.6 1010.8 0.0
10/03:00pm 28.9 24.9 10.6 32 10.7 SE 22 35 12 19 1015.0 1011.2 0.0
10/02:30pm 28.5 25.4 10.2 32 10.6 SE 17 28 9 15 1015.5 1011.8 0.0
10/02:00pm 28.6 25.0 9.8 31 10.8 SE 19 30 10 16 1015.7 1012.0 0.0
10/01:30pm 28.2 25.7 10.9 34 10.1 S 15 24 8 13 1016.1 1012.3 0.0
10/01:00pm 27.5 24.3 9.8 33 10.1 SSW 17 24 9 13 1016.5 1012.7 0.0
10/12:30pm 26.5 24.4 11.0 38 9.0 S 13 17 7 9 1017.0 1013.3 0.0
10/12:00pm 25.4 24.5 11.2 41 8.2 SW 7 13 4 7 1017.3 1013.6 0.0
10/11:30am 24.0 22.6 11.0 44 7.5 SSW 9 15 5 8 1017.8 1014.0 0.0
10/11:00am 23.7 22.5 12.7 50 6.5 ESE 11 15 6 8 1018.0 1014.2 0.0
10/10:30am 22.1 21.2 12.6 55 5.6 NNE 9 13 5 7 1018.2 1014.4 0.0
10/10:00am 21.2 20.3 12.6 58 5.0 N 9 15 5 8 1018.2 1014.4 0.0
10/09:30am 20.5 19.2 12.5 60 4.6 NE 11 17 6 9 1018.3 1014.6 0.0
10/09:00am 19.5 17.8 12.5 64 4.0 E 13 19 7 10 1018.4 1014.7 0.0
10/08:30am 18.8 18.4 13.0 69 3.4 ESE 7 13 4 7 1018.4 1014.7 0.0
10/08:00am 17.3 16.9 14.0 81 1.9 S 9 15 5 8 1018.1 1014.3 0.0
10/07:30am 16.4 16.2 13.7 84 1.6 SW 7 13 4 7 1017.9 1014.1 0.0
10/07:00am 15.5 15.8 13.5 88 1.2 E 4 7 2 4 1017.7 1013.9 0.0
10/06:30am 14.8 14.4 13.0 89 1.0 ESE 7 15 4 8 1017.6 1013.8 0.0
10/06:00am 14.7 13.8 12.6 87 1.2 E 9 11 5 6 1017.3 1013.6 0.0
10/05:30am 15.4 14.6 12.9 85 1.4 ENE 9 13 5 7 1017.2 1013.5 0.0
10/05:00am 15.9 14.4 13.2 84 1.6 ENE 13 17 7 9 1017.0 1013.3 0.0
10/04:30am 16.0 13.8 13.3 84 1.6 ENE 17 20 9 11 1016.8 1013.0 0.0
10/04:00am 16.6 14.5 13.5 82 1.8 ENE 17 22 9 12 1016.8 1013.0 0.0
10/03:30am 16.5 13.9 13.2 81 1.9 ENE 19 24 10 13 1016.9 1013.2 0.0
10/03:00am 16.6 14.3 13.1 80 2.0 ENE 17 20 9 11 1017.1 1013.4 0.0
10/02:30am 16.8 14.5 13.1 79 2.1 E 17 20 9 11 1017.2 1013.5 0.0
10/02:00am 17.5 15.1 12.8 74 2.7 E 17 20 9 11 1017.5 1013.7 0.0
10/01:30am 18.2 15.8 12.6 70 3.2 E 17 22 9 12 1017.8 1014.0 0.0
10/01:00am 18.2 16.5 12.4 69 3.3 E 13 19 7 10 1018.1 1014.3 0.0
10/12:30am 18.5 16.7 12.0 66 3.7 E 13 17 7 9 1018.3 1014.6 0.0
10/12:00am 19.0 16.8 12.0 64 4.0 E 15 19 8 10 1018.5 1014.8 0.0
 
Date/Time
EDT
Temp
°C
App
Temp
°C
Dew
Point
Rel
Hum
%
Delta-T
°C
Wind Press
QNH
hPa
Press
MSL
hPa
Rain
since 9 am
mm
Dir
 
Spd
km/h
Gust
km/h
Spd
kts
Gust
kts
09/11:30pm 19.7 17.5 12.2 62 4.3 E 15 17 8 9 1018.7 1015.0 0.0
09/11:00pm 19.5 17.3 12.0 62 4.3 E 15 19 8 10 1018.8 1015.1 0.0
09/10:30pm 19.2 17.0 12.0 63 4.1 E 15 17 8 9 1018.9 1015.2 0.0
09/10:00pm 20.3 17.6 11.8 58 4.9 E 17 20 9 11 1018.8 1015.1 0.0
09/09:30pm 20.5 18.1 11.4 56 5.2 E 15 17 8 9 1018.7 1015.0 0.0
09/09:00pm 21.2 18.4 11.2 53 5.7 E 17 20 9 11 1018.5 1014.8 0.0
09/08:30pm 21.7 19.6 11.1 51 6.0 E 13 17 7 9 1018.5 1014.8 0.0
09/08:00pm 23.6 20.8 11.3 46 7.1 ENE 17 26 9 14 1018.4 1014.7 0.0
09/07:30pm 25.0 22.0 10.5 40 8.3 SE 17 22 9 12 1018.2 1014.4 0.0
09/07:00pm 25.9 22.3 10.5 38 8.8 SE 20 30 11 16 1017.8 1014.0 0.0
09/06:30pm 26.9 23.2 10.2 35 9.6 SE 20 32 11 17 1017.5 1013.7 0.0
09/06:00pm 27.5 23.6 10.7 35 9.8 SSE 22 30 12 16 1017.3 1013.6 0.0
09/05:30pm 27.9 24.6 11.5 36 9.7 SE 20 30 11 16 1017.3 1013.6 0.0
09/05:00pm 27.3 24.1 11.3 37 9.4 E 19 26 10 14 1017.7 1013.9 0.0
09/04:30pm 27.7 24.2 10.9 35 9.8 E 20 32 11 17 1017.9 1014.1 0.0
09/04:00pm 27.2 23.8 11.3 37 9.3 ENE 20 32 11 17 1018.1 1014.3 0.0
09/03:30pm 27.7 24.7 12.5 39 9.1 E 20 32 11 17 1018.4 1014.7 0.0
09/03:00pm 27.1 25.1 13.8 44 8.1 ENE 17 28 9 15 1018.8 1015.1 0.0
09/02:30pm 27.2 24.6 13.9 44 8.1 ENE 20 33 11 18 1019.4 1015.6 0.0
09/02:00pm 26.8 23.7 12.1 40 8.7 ENE 20 28 11 15 1019.7 1015.9 0.0
09/01:30pm 26.2 23.4 12.6 43 8.1 E 19 41 10 22 1020.1 1016.4 0.0
09/01:00pm 26.2 23.1 13.3 45 7.8 ENE 22 32 12 17 1020.2 1016.5 0.0
09/12:30pm 25.3 22.3 12.5 45 7.6 E 20 28 11 15 1020.6 1016.9 0.0
09/12:00pm 24.8 20.4 11.7 44 7.6 E 26 39 14 21 1021.1 1017.3 0.0
09/11:30am 24.6 19.7 10.1 40 8.2 E 26 37 14 20 1021.2 1017.5 0.0
09/11:00am 23.7 19.4 10.7 44 7.4 ESE 24 35 13 19 1021.3 1017.6 0.0
09/10:30am 22.8 19.0 12.4 52 6.1 ESE 24 33 13 18 1021.3 1017.6 0.0
09/10:00am 22.1 19.0 13.5 58 5.1 ESE 22 33 12 18 1021.2 1017.5 0.0
09/09:30am 21.0 17.4 13.2 61 4.6 ESE 24 35 13 19 1021.2 1017.5 0.0
09/09:00am 20.3 17.5 13.3 64 4.1 ESE 20 28 11 15 1021.1 1017.3 0.0
09/08:30am 18.8 16.0 12.5 67 3.6 SE 19 24 10 13 1021.1 1017.3 0.0
09/08:00am 17.5 14.7 11.5 68 3.4 SE 17 22 9 12 1020.9 1017.1 0.0
09/07:30am 16.5 14.2 11.6 73 2.7 SE 15 20 8 11 1020.4 1016.7 0.0
09/07:00am 14.6 12.9 11.2 80 1.9 S 11 15 6 8 1020.2 1016.5 0.0
09/06:30am 14.8 12.9 10.6 76 2.3 SE 11 15 6 8 1019.9 1016.2 0.0
09/06:00am 15.1 12.8 10.5 74 2.5 ESE 13 17 7 9 1019.7 1015.9 0.0
09/05:30am 15.3 13.1 10.9 75 2.4 SE 13 17 7 9 1019.4 1015.6 0.0
09/05:00am 15.7 13.9 10.9 73 2.6 ESE 11 15 6 8 1019.2 1015.4 0.0
09/04:30am 16.4 13.9 11.1 71 2.9 ESE 15 19 8 10 1018.9 1015.2 0.0
09/04:00am 16.7 14.2 11.0 69 3.2 ESE 15 17 8 9 1018.8 1015.1 0.0
09/03:30am 17.4 14.5 11.0 66 3.6 ESE 17 24 9 13 1018.8 1015.1 0.0
09/03:00am 18.1 14.0 11.4 65 3.8 ESE 24 32 13 17 1018.7 1015.0 0.0
09/02:30am 16.7 14.2 12.3 75 2.5 E 17 20 9 11 1019.2 1015.4 0.0
09/02:00am 17.2 14.8 12.5 74 2.7 E 17 22 9 12 1019.5 1015.7 0.0
09/01:30am 17.8 15.2 13.1 74 2.7 E 19 24 10 13 1019.5 1015.7 0.0
09/01:00am 18.3 15.8 13.6 74 2.7 E 19 24 10 13 1019.5 1015.7 0.0
09/12:30am 17.7 15.7 12.8 73 2.8 E 15 19 8 10 1019.8 1016.1 0.0
09/12:00am 19.0 17.2 13.2 69 3.4 E 15 20 8 11 1019.8 1016.1 0.0
 
Date/Time
EDT
Temp
°C
App
Temp
°C
Dew
Point
Rel
Hum
%
Delta-T
°C
Wind Press
QNH
hPa
Press
MSL
hPa
Rain
since 9 am
mm
Dir
 
Spd
km/h
Gust
km/h
Spd
kts
Gust
kts
08/11:30pm 19.4 17.0 12.7 65 3.9 E 17 22 9 12 1019.8 1016.1 0.0
08/11:00pm 19.3 17.2 12.3 64 4.0 E 15 20 8 11 1019.6 1015.8 0.0
08/10:30pm 20.4 17.5 12.4 60 4.6 E 19 28 10 15 1019.4 1015.6 0.0
08/10:00pm 21.3 17.9 12.4 57 5.2 E 22 28 12 15 1019.2 1015.4 0.0
08/09:30pm 21.6 18.7 12.2 55 5.5 E 19 26 10 14 1018.8 1015.1 0.0
08/09:00pm 22.2 19.1 11.6 51 6.1 ESE 19 24 10 13 1018.5 1014.8 0.0
08/08:30pm 22.9 19.8 11.6 49 6.5 SE 19 24 10 13 1018.4 1014.7 0.0
08/08:00pm 23.6 20.3 11.6 47 6.9 SE 20 24 11 13 1018.2 1014.4 0.0
08/07:30pm 24.5 19.5 10.8 42 7.9 SE 28 39 15 21 1017.9 1014.1 0.0
08/07:00pm 25.4 20.4 10.8 40 8.4 SSE 28 35 15 19 1017.5 1013.7 0.0
08/06:30pm 26.2 22.6 13.0 44 7.9 SE 24 35 13 19 1017.1 1013.4 0.0
08/06:00pm 26.8 22.9 13.2 43 8.2 SSE 26 35 14 19 1016.9 1013.2 0.0
08/05:30pm 27.4 23.8 13.0 41 8.7 SE 24 39 13 21 1016.8 1013.0 0.0
08/05:00pm 28.6 25.2 12.5 37 9.7 SSE 22 35 12 19 1016.8 1013.0 0.0
08/04:30pm 28.8 25.4 10.5 32 10.7 S 19 32 10 17 1016.9 1013.2 0.0
08/04:00pm 28.1 26.6 13.2 39 9.0 ENE 13 24 7 13 1017.1 1013.4 0.0
08/03:30pm 28.4 27.3 11.9 36 9.8 SE 9 17 5 9 1017.2 1013.5 0.0
08/03:00pm 27.8 25.8 11.4 36 9.6 ENE 13 20 7 11 1017.6 1013.8 0.0
08/02:30pm 27.4 25.6 12.2 39 9.0 ENE 13 22 7 12 1018.0 1014.2 0.0
08/02:00pm 26.8 24.6 12.1 40 8.7 ENE 15 26 8 14 1018.4 1014.7 0.0
08/01:30pm 26.8 25.4 12.1 40 8.7 SE 11 20 6 11 1018.7 1015.0 0.0
08/01:00pm 25.9 23.9 10.1 37 9.0 E 11 24 6 13 1018.9 1015.2 0.0
08/12:30pm 25.0 22.6 10.1 39 8.5 SE 13 24 7 13 1019.4 1015.6 0.0
08/12:00pm 24.7 22.9 12.0 45 7.4 E 13 24 7 13 1019.7 1015.9 0.0
08/11:30am 23.7 21.5 10.7 44 7.4 E 13 20 7 11 1019.9 1016.2 0.0
08/11:00am 23.0 20.3 10.4 45 7.1 E 15 22 8 12 1020.0 1016.3 0.0
08/10:30am 22.6 19.7 12.3 52 6.0 E 19 26 10 14 1020.0 1016.3 0.0
08/10:00am 21.3 18.1 11.1 52 5.8 E 19 30 10 16 1020.0 1016.3 0.0
08/09:30am 20.2 17.9 11.9 59 4.8 E 15 22 8 12 1019.9 1016.2 0.0

Other Formats:

Comma delimited format used in spreadsheet applications
http://www.bom.gov.au/fwo/IDN60801/IDN60801.95728.axf

JavaScript Object Notation format (JSON) in row-major order
http://www.bom.gov.au/fwo/IDN60801/IDN60801.95728.json